sensor_id;sensor_type;location;lat;lon;timestamp;pressure;altitude;pressure_sealevel;temperature;humidity
58757;BME280;44527;47.460;19.016;2023-04-03T00:00:26;100190.69;;;8.38;65.27
58757;BME280;44527;47.460;19.016;2023-04-03T00:03:28;100190.75;;;8.52;64.32
58757;BME280;44527;47.460;19.016;2023-04-03T00:06:30;100189.81;;;8.53;63.44
58757;BME280;44527;47.460;19.016;2023-04-03T00:09:33;100183.97;;;8.34;63.80
58757;BME280;44527;47.460;19.016;2023-04-03T00:12:35;100191.56;;;8.08;63.31
58757;BME280;44527;47.460;19.016;2023-04-03T00:15:37;100179.28;;;7.94;64.63
58757;BME280;44527;47.460;19.016;2023-04-03T00:18:39;100187.66;;;7.85;64.28
58757;BME280;44527;47.460;19.016;2023-04-03T00:21:42;100187.88;;;7.96;65.92
58757;BME280;44527;47.460;19.016;2023-04-03T00:24:44;100196.25;;;7.87;66.12
58757;BME280;44527;47.460;19.016;2023-04-03T00:27:47;100195.44;;;8.01;66.04
58757;BME280;44527;47.460;19.016;2023-04-03T00:30:49;100198.34;;;7.96;66.85
58757;BME280;44527;47.460;19.016;2023-04-03T00:33:52;100192.94;;;7.99;66.40
58757;BME280;44527;47.460;19.016;2023-04-03T00:36:54;100189.56;;;7.97;66.70
58757;BME280;44527;47.460;19.016;2023-04-03T00:39:59;100199.59;;;7.89;67.79
58757;BME280;44527;47.460;19.016;2023-04-03T00:43:02;100196.16;;;7.89;67.64
58757;BME280;44527;47.460;19.016;2023-04-03T00:46:07;100190.09;;;7.88;68.59
58757;BME280;44527;47.460;19.016;2023-04-03T00:49:10;100197.88;;;7.74;67.69
58757;BME280;44527;47.460;19.016;2023-04-03T00:52:13;100202.22;;;7.89;68.66
58757;BME280;44527;47.460;19.016;2023-04-03T00:55:17;100203.69;;;7.79;66.06
58757;BME280;44527;47.460;19.016;2023-04-03T00:58:20;100204.28;;;7.84;65.86
58757;BME280;44527;47.460;19.016;2023-04-03T01:01:25;100202.56;;;7.83;65.57
58757;BME280;44527;47.460;19.016;2023-04-03T01:04:38;100210.22;;;7.86;65.25
58757;BME280;44527;47.460;19.016;2023-04-03T01:07:41;100206.28;;;7.79;66.29
58757;BME280;44527;47.460;19.016;2023-04-03T01:10:44;100209.56;;;7.82;66.83
58757;BME280;44527;47.460;19.016;2023-04-03T01:13:47;100207.63;;;7.86;65.41
58757;BME280;44527;47.460;19.016;2023-04-03T01:16:53;100207.97;;;7.80;65.23
58757;BME280;44527;47.460;19.016;2023-04-03T01:26:13;100200.56;;;7.72;65.58
58757;BME280;44527;47.460;19.016;2023-04-03T01:29:16;100204.97;;;7.56;66.44
58757;BME280;44527;47.460;19.016;2023-04-03T01:32:18;100203.19;;;7.72;65.31
58757;BME280;44527;47.460;19.016;2023-04-03T01:35:20;100209.94;;;7.60;65.14
58757;BME280;44527;47.460;19.016;2023-04-03T01:38:22;100207.31;;;7.76;64.98
58757;BME280;44527;47.460;19.016;2023-04-03T01:41:25;100217.44;;;7.67;64.98
58757;BME280;44527;47.460;19.016;2023-04-03T01:44:32;100206.16;;;7.66;64.75
58757;BME280;44527;47.460;19.016;2023-04-03T01:47:34;100213.97;;;7.82;64.37
58757;BME280;44527;47.460;19.016;2023-04-03T01:50:37;100224.34;;;7.68;64.64
58757;BME280;44527;47.460;19.016;2023-04-03T01:53:40;100221.06;;;7.64;64.49
58757;BME280;44527;47.460;19.016;2023-04-03T01:56:42;100223.94;;;7.59;63.85
58757;BME280;44527;47.460;19.016;2023-04-03T01:59:45;100223.34;;;7.54;63.58
58757;BME280;44527;47.460;19.016;2023-04-03T02:02:47;100226.87;;;7.37;64.07
58757;BME280;44527;47.460;19.016;2023-04-03T02:05:51;100225.69;;;7.43;64.00
58757;BME280;44527;47.460;19.016;2023-04-03T02:08:53;100224.25;;;7.22;66.13
58757;BME280;44527;47.460;19.016;2023-04-03T02:11:55;100227.97;;;7.33;64.29
58757;BME280;44527;47.460;19.016;2023-04-03T02:14:57;100228.47;;;7.40;63.72
58757;BME280;44527;47.460;19.016;2023-04-03T02:18:00;100235.12;;;7.46;64.27
58757;BME280;44527;47.460;19.016;2023-04-03T02:21:08;100230.50;;;7.35;66.22
58757;BME280;44527;47.460;19.016;2023-04-03T02:24:10;100228.41;;;7.42;65.02
58757;BME280;44527;47.460;19.016;2023-04-03T02:27:13;100225.44;;;7.48;63.91
58757;BME280;44527;47.460;19.016;2023-04-03T02:30:16;100226.63;;;7.42;65.01
58757;BME280;44527;47.460;19.016;2023-04-03T02:33:18;100229.63;;;7.19;63.70
58757;BME280;44527;47.460;19.016;2023-04-03T02:36:20;100226.28;;;7.17;62.59
58757;BME280;44527;47.460;19.016;2023-04-03T02:39:23;100236.13;;;7.11;61.32
58757;BME280;44527;47.460;19.016;2023-04-03T02:42:26;100232.84;;;7.24;63.56
58757;BME280;44527;47.460;19.016;2023-04-03T02:45:28;100229.22;;;7.26;65.39
58757;BME280;44527;47.460;19.016;2023-04-03T02:48:31;100231.13;;;7.07;65.78
58757;BME280;44527;47.460;19.016;2023-04-03T02:51:33;100234.59;;;7.07;66.53
58757;BME280;44527;47.460;19.016;2023-04-03T02:54:35;100234.00;;;7.18;65.34
58757;BME280;44527;47.460;19.016;2023-04-03T02:57:38;100228.97;;;7.31;64.12
58757;BME280;44527;47.460;19.016;2023-04-03T03:00:41;100231.56;;;7.31;63.75
58757;BME280;44527;47.460;19.016;2023-04-03T03:03:45;100242.97;;;6.97;61.22
58757;BME280;44527;47.460;19.016;2023-04-03T03:06:47;100232.16;;;7.04;62.50
58757;BME280;44527;47.460;19.016;2023-04-03T03:09:49;100237.16;;;6.91;61.11
58757;BME280;44527;47.460;19.016;2023-04-03T03:12:52;100243.97;;;6.94;60.94
58757;BME280;44527;47.460;19.016;2023-04-03T03:15:54;100237.72;;;7.14;60.29
58757;BME280;44527;47.460;19.016;2023-04-03T03:18:58;100240.41;;;7.12;60.02
58757;BME280;44527;47.460;19.016;2023-04-03T03:22:00;100247.97;;;7.01;60.26
58757;BME280;44527;47.460;19.016;2023-04-03T03:25:03;100242.69;;;7.19;61.44
58757;BME280;44527;47.460;19.016;2023-04-03T03:28:06;100243.78;;;7.14;60.87
58757;BME280;44527;47.460;19.016;2023-04-03T03:31:08;100234.50;;;7.09;61.13
58757;BME280;44527;47.460;19.016;2023-04-03T03:34:11;100242.16;;;6.96;62.53
58757;BME280;44527;47.460;19.016;2023-04-03T03:37:16;100245.94;;;7.06;61.48
58757;BME280;44527;47.460;19.016;2023-04-03T03:40:18;100241.16;;;7.14;61.97
58757;BME280;44527;47.460;19.016;2023-04-03T03:43:21;100234.28;;;7.13;61.78
58757;BME280;44527;47.460;19.016;2023-04-03T03:46:24;100245.38;;;7.17;64.30
58757;BME280;44527;47.460;19.016;2023-04-03T03:49:27;100239.66;;;7.10;60.72
58757;BME280;44527;47.460;19.016;2023-04-03T03:52:29;100227.69;;;7.22;60.67
58757;BME280;44527;47.460;19.016;2023-04-03T03:55:32;100238.59;;;6.97;60.19
58757;BME280;44527;47.460;19.016;2023-04-03T03:58:35;100248.19;;;6.97;61.26
58757;BME280;44527;47.460;19.016;2023-04-03T04:01:38;100252.53;;;6.80;60.60
58757;BME280;44527;47.460;19.016;2023-04-03T04:04:42;100246.81;;;6.74;62.24
58757;BME280;44527;47.460;19.016;2023-04-03T04:07:44;100242.78;;;6.84;61.28
58757;BME280;44527;47.460;19.016;2023-04-03T04:10:47;100240.19;;;6.84;61.21
58757;BME280;44527;47.460;19.016;2023-04-03T04:13:49;100243.25;;;6.75;61.92
58757;BME280;44527;47.460;19.016;2023-04-03T04:16:53;100240.94;;;6.86;60.72
58757;BME280;44527;47.460;19.016;2023-04-03T04:19:55;100246.56;;;6.78;61.44
58757;BME280;44527;47.460;19.016;2023-04-03T04:22:59;100241.94;;;6.83;62.14
58757;BME280;44527;47.460;19.016;2023-04-03T04:26:01;100246.75;;;6.91;62.58
58757;BME280;44527;47.460;19.016;2023-04-03T04:29:05;100253.03;;;6.71;60.72
58757;BME280;44527;47.460;19.016;2023-04-03T04:32:07;100252.59;;;6.79;60.60
58757;BME280;44527;47.460;19.016;2023-04-03T04:35:11;100257.75;;;6.80;61.10
58757;BME280;44527;47.460;19.016;2023-04-03T04:38:16;100251.41;;;6.68;62.93
58757;BME280;44527;47.460;19.016;2023-04-03T04:41:22;100254.53;;;6.58;62.55
58757;BME280;44527;47.460;19.016;2023-04-03T04:44:25;100255.00;;;6.49;62.41
58757;BME280;44527;47.460;19.016;2023-04-03T04:47:28;100257.31;;;6.55;63.54
58757;BME280;44527;47.460;19.016;2023-04-03T04:50:30;100254.78;;;6.53;63.51
58757;BME280;44527;47.460;19.016;2023-04-03T04:53:33;100251.50;;;6.32;62.10
58757;BME280;44527;47.460;19.016;2023-04-03T04:56:35;100254.72;;;6.37;61.51
58757;BME280;44527;47.460;19.016;2023-04-03T04:59:38;100257.69;;;6.30;62.83
58757;BME280;44527;47.460;19.016;2023-04-03T05:02:48;100269.06;;;6.29;62.43
58757;BME280;44527;47.460;19.016;2023-04-03T05:05:52;100270.06;;;6.43;63.25
58757;BME280;44527;47.460;19.016;2023-04-03T05:08:55;100267.59;;;6.58;64.21
58757;BME280;44527;47.460;19.016;2023-04-03T05:11:58;100269.22;;;6.43;61.83
58757;BME280;44527;47.460;19.016;2023-04-03T05:15:01;100268.88;;;6.66;62.08
58757;BME280;44527;47.460;19.016;2023-04-03T05:18:04;100270.97;;;6.60;61.58
58757;BME280;44527;47.460;19.016;2023-04-03T05:21:07;100275.56;;;6.72;61.60
58757;BME280;44527;47.460;19.016;2023-04-03T05:24:10;100273.63;;;6.93;60.95
58757;BME280;44527;47.460;19.016;2023-04-03T05:27:12;100264.72;;;7.13;60.13
58757;BME280;44527;47.460;19.016;2023-04-03T05:30:15;100266.84;;;7.22;60.47
58757;BME280;44527;47.460;19.016;2023-04-03T05:33:18;100268.09;;;8.10;57.86
58757;BME280;44527;47.460;19.016;2023-04-03T05:36:22;100260.66;;;7.88;57.27
58757;BME280;44527;47.460;19.016;2023-04-03T05:39:24;100256.12;;;7.60;58.59
58757;BME280;44527;47.460;19.016;2023-04-03T05:42:28;100263.09;;;7.44;59.79
58757;BME280;44527;47.460;19.016;2023-04-03T05:45:31;100272.41;;;7.16;59.63
58757;BME280;44527;47.460;19.016;2023-04-03T05:48:34;100287.38;;;7.12;58.96
58757;BME280;44527;47.460;19.016;2023-04-03T05:51:36;100283.75;;;8.26;58.09
58757;BME280;44527;47.460;19.016;2023-04-03T05:54:39;100289.41;;;11.11;50.62
58757;BME280;44527;47.460;19.016;2023-04-03T05:57:42;100295.91;;;13.55;43.84
58757;BME280;44527;47.460;19.016;2023-04-03T06:00:46;100296.50;;;15.09;38.17
58757;BME280;44527;47.460;19.016;2023-04-03T06:03:49;100306.09;;;13.49;41.23
58757;BME280;44527;47.460;19.016;2023-04-03T06:06:53;100305.03;;;13.29;42.25
58757;BME280;44527;47.460;19.016;2023-04-03T06:09:57;100306.16;;;12.80;42.99
58757;BME280;44527;47.460;19.016;2023-04-03T06:12:59;100302.31;;;12.84;41.94
58757;BME280;44527;47.460;19.016;2023-04-03T06:16:03;100311.66;;;12.77;43.05
58757;BME280;44527;47.460;19.016;2023-04-03T06:19:07;100307.66;;;12.25;44.39
58757;BME280;44527;47.460;19.016;2023-04-03T06:22:10;100320.12;;;12.10;44.81
58757;BME280;44527;47.460;19.016;2023-04-03T06:25:13;100321.66;;;11.39;45.92
58757;BME280;44527;47.460;19.016;2023-04-03T06:28:16;100315.72;;;10.58;47.61
58757;BME280;44527;47.460;19.016;2023-04-03T06:31:21;100317.50;;;10.58;48.62
58757;BME280;44527;47.460;19.016;2023-04-03T06:34:25;100309.88;;;10.28;48.90
58757;BME280;44527;47.460;19.016;2023-04-03T06:37:31;100308.06;;;10.01;49.69
58757;BME280;44527;47.460;19.016;2023-04-03T06:40:34;100316.34;;;9.95;51.09
58757;BME280;44527;47.460;19.016;2023-04-03T06:43:37;100314.97;;;9.75;50.43
58757;BME280;44527;47.460;19.016;2023-04-03T06:46:43;100321.28;;;9.58;50.15
58757;BME280;44527;47.460;19.016;2023-04-03T06:49:45;100319.22;;;9.90;50.54
58757;BME280;44527;47.460;19.016;2023-04-03T06:52:49;100322.16;;;10.27;49.92
58757;BME280;44527;47.460;19.016;2023-04-03T06:55:51;100339.31;;;10.46;48.72
58757;BME280;44527;47.460;19.016;2023-04-03T06:58:55;100345.72;;;11.07;48.28
58757;BME280;44527;47.460;19.016;2023-04-03T07:01:59;100344.75;;;10.95;48.49
58757;BME280;44527;47.460;19.016;2023-04-03T07:05:02;100339.81;;;11.16;48.43
58757;BME280;44527;47.460;19.016;2023-04-03T07:08:04;100355.16;;;10.84;47.60
58757;BME280;44527;47.460;19.016;2023-04-03T07:11:06;100348.56;;;10.51;49.29
58757;BME280;44527;47.460;19.016;2023-04-03T07:14:09;100349.56;;;10.36;49.51
58757;BME280;44527;47.460;19.016;2023-04-03T07:17:13;100354.59;;;10.66;49.96
58757;BME280;44527;47.460;19.016;2023-04-03T07:20:18;100355.13;;;10.71;49.30
58757;BME280;44527;47.460;19.016;2023-04-03T07:23:22;100356.81;;;10.85;48.61
58757;BME280;44527;47.460;19.016;2023-04-03T07:26:24;100360.97;;;11.15;48.03
58757;BME280;44527;47.460;19.016;2023-04-03T07:29:30;100355.09;;;10.58;49.23
58757;BME280;44527;47.460;19.016;2023-04-03T07:32:33;100355.97;;;10.72;49.78
58757;BME280;44527;47.460;19.016;2023-04-03T07:35:36;100361.12;;;10.46;47.92
58757;BME280;44527;47.460;19.016;2023-04-03T07:38:38;100357.75;;;10.71;48.43
58757;BME280;44527;47.460;19.016;2023-04-03T07:41:41;100365.44;;;10.74;47.81
58757;BME280;44527;47.460;19.016;2023-04-03T07:44:43;100361.59;;;10.53;47.67
58757;BME280;44527;47.460;19.016;2023-04-03T07:47:46;100360.69;;;10.67;48.63
58757;BME280;44527;47.460;19.016;2023-04-03T07:50:48;100365.78;;;10.55;47.77
58757;BME280;44527;47.460;19.016;2023-04-03T07:53:50;100370.94;;;10.57;47.33
58757;BME280;44527;47.460;19.016;2023-04-03T07:56:52;100377.28;;;10.80;47.71
58757;BME280;44527;47.460;19.016;2023-04-03T07:59:55;100370.03;;;10.71;46.33
58757;BME280;44527;47.460;19.016;2023-04-03T08:02:57;100377.28;;;10.80;48.03
58757;BME280;44527;47.460;19.016;2023-04-03T08:06:01;100374.06;;;10.49;47.27
58757;BME280;44527;47.460;19.016;2023-04-03T08:09:06;100378.50;;;10.34;48.50
58757;BME280;44527;47.460;19.016;2023-04-03T08:12:09;100375.25;;;10.31;47.66
58757;BME280;44527;47.460;19.016;2023-04-03T08:15:14;100381.69;;;10.25;48.17
58757;BME280;44527;47.460;19.016;2023-04-03T08:18:17;100377.34;;;9.97;48.95
58757;BME280;44527;47.460;19.016;2023-04-03T08:21:20;100383.53;;;10.10;48.59
58757;BME280;44527;47.460;19.016;2023-04-03T08:24:23;100384.62;;;10.21;49.05
58757;BME280;44527;47.460;19.016;2023-04-03T08:27:25;100383.25;;;10.69;48.57
58757;BME280;44527;47.460;19.016;2023-04-03T08:30:32;100392.50;;;10.35;47.66
58757;BME280;44527;47.460;19.016;2023-04-03T08:33:34;100381.44;;;10.57;47.99
58757;BME280;44527;47.460;19.016;2023-04-03T08:36:39;100386.72;;;10.70;49.20
58757;BME280;44527;47.460;19.016;2023-04-03T08:39:42;100388.75;;;10.79;48.42
58757;BME280;44527;47.460;19.016;2023-04-03T08:46:07;100393.53;;;10.99;45.39
58757;BME280;44527;47.460;19.016;2023-04-03T08:49:15;100393.13;;;11.44;45.98
58757;BME280;44527;47.460;19.016;2023-04-03T08:55:39;100387.69;;;12.09;42.36
58757;BME280;44527;47.460;19.016;2023-04-03T08:58:49;100391.38;;;12.07;43.43
58757;BME280;44527;47.460;19.016;2023-04-03T09:01:53;100390.28;;;12.22;44.32
58757;BME280;44527;47.460;19.016;2023-04-03T09:04:57;100390.59;;;12.17;41.25
58757;BME280;44527;47.460;19.016;2023-04-03T09:08:03;100389.66;;;12.18;41.79
58757;BME280;44527;47.460;19.016;2023-04-03T09:14:30;100377.97;;;12.47;42.03
58757;BME280;44527;47.460;19.016;2023-04-03T09:24:05;100396.66;;;12.55;40.56
58757;BME280;44527;47.460;19.016;2023-04-03T09:27:10;100393.69;;;12.35;39.97
58757;BME280;44527;47.460;19.016;2023-04-03T09:30:20;100403.25;;;12.36;39.94
58757;BME280;44527;47.460;19.016;2023-04-03T09:33:25;100395.28;;;12.38;40.29
58757;BME280;44527;47.460;19.016;2023-04-03T09:36:42;100399.13;;;12.45;41.22
58757;BME280;44527;47.460;19.016;2023-04-03T09:39:52;100397.28;;;12.34;42.99
58757;BME280;44527;47.460;19.016;2023-04-03T09:42:56;100395.91;;;12.05;41.58
58757;BME280;44527;47.460;19.016;2023-04-03T09:46:16;100396.50;;;12.45;40.15
58757;BME280;44527;47.460;19.016;2023-04-03T09:49:21;100393.41;;;12.75;40.90
58757;BME280;44527;47.460;19.016;2023-04-03T09:52:25;100393.16;;;13.14;38.96
58757;BME280;44527;47.460;19.016;2023-04-03T09:55:28;100390.13;;;13.53;38.84
58757;BME280;44527;47.460;19.016;2023-04-03T09:58:39;100385.59;;;13.78;39.09
58757;BME280;44527;47.460;19.016;2023-04-03T10:01:59;100379.19;;;14.14;40.19
58757;BME280;44527;47.460;19.016;2023-04-03T10:05:02;100376.34;;;13.61;37.96
58757;BME280;44527;47.460;19.016;2023-04-03T10:08:19;100387.00;;;13.82;37.54
58757;BME280;44527;47.460;19.016;2023-04-03T10:11:22;100385.94;;;13.62;37.50
58757;BME280;44527;47.460;19.016;2023-04-03T10:14:27;100385.28;;;13.25;39.26
58757;BME280;44527;47.460;19.016;2023-04-03T10:20:46;100385.59;;;13.09;37.74
58757;BME280;44527;47.460;19.016;2023-04-03T10:27:11;100379.75;;;12.46;39.94
58757;BME280;44527;47.460;19.016;2023-04-03T10:30:34;100384.56;;;12.28;41.40
58757;BME280;44527;47.460;19.016;2023-04-03T10:33:47;100392.81;;;12.11;42.12
58757;BME280;44527;47.460;19.016;2023-04-03T10:43:21;100384.91;;;11.61;42.14
58757;BME280;44527;47.460;19.016;2023-04-03T10:46:33;100378.91;;;11.59;41.59
58757;BME280;44527;47.460;19.016;2023-04-03T11:11:36;100375.59;;;12.07;40.55
58757;BME280;44527;47.460;19.016;2023-04-03T11:14:39;100379.19;;;11.80;40.42
58757;BME280;44527;47.460;19.016;2023-04-03T11:17:50;100378.47;;;11.65;43.50
58757;BME280;44527;47.460;19.016;2023-04-03T11:21:07;100375.13;;;11.63;43.12
58757;BME280;44527;47.460;19.016;2023-04-03T11:24:17;100371.00;;;11.72;42.76
58757;BME280;44527;47.460;19.016;2023-04-03T11:27:22;100361.56;;;11.57;41.48
58757;BME280;44527;47.460;19.016;2023-04-03T11:30:30;100361.34;;;11.72;42.75
58757;BME280;44527;47.460;19.016;2023-04-03T11:36:58;100361.63;;;11.81;41.15
58757;BME280;44527;47.460;19.016;2023-04-03T11:43:29;100345.97;;;11.92;41.73
58757;BME280;44527;47.460;19.016;2023-04-03T11:46:51;100344.34;;;12.02;41.86
58757;BME280;44527;47.460;19.016;2023-04-03T11:50:02;100342.00;;;12.10;40.55
58757;BME280;44527;47.460;19.016;2023-04-03T11:59:22;100344.72;;;12.22;38.55
58757;BME280;44527;47.460;19.016;2023-04-03T12:02:35;100348.94;;;12.11;38.72
58757;BME280;44527;47.460;19.016;2023-04-03T12:08:59;100341.50;;;12.53;38.11
58757;BME280;44527;47.460;19.016;2023-04-03T12:12:21;100343.00;;;12.45;40.56
58757;BME280;44527;47.460;19.016;2023-04-03T12:15:26;100334.81;;;12.60;39.69
58757;BME280;44527;47.460;19.016;2023-04-03T12:24:51;100326.44;;;12.55;39.05
58757;BME280;44527;47.460;19.016;2023-04-03T12:27:53;100333.22;;;12.47;40.35
58757;BME280;44527;47.460;19.016;2023-04-03T12:30:56;100330.91;;;12.42;38.74
58757;BME280;44527;47.460;19.016;2023-04-03T12:34:14;100330.44;;;12.37;40.12
58757;BME280;44527;47.460;19.016;2023-04-03T12:37:44;100327.66;;;12.14;40.19
58757;BME280;44527;47.460;19.016;2023-04-03T12:40:52;100327.06;;;12.11;40.62
58757;BME280;44527;47.460;19.016;2023-04-03T12:47:22;100328.50;;;11.78;40.75
58757;BME280;44527;47.460;19.016;2023-04-03T12:50:30;100327.88;;;11.87;40.42
58757;BME280;44527;47.460;19.016;2023-04-03T12:53:33;100322.37;;;12.03;39.86
58757;BME280;44527;47.460;19.016;2023-04-03T12:56:36;100315.47;;;12.37;40.74
58757;BME280;44527;47.460;19.016;2023-04-03T12:59:38;100318.44;;;12.33;41.80
58757;BME280;44527;47.460;19.016;2023-04-03T13:02:43;100316.47;;;12.48;39.50
58757;BME280;44527;47.460;19.016;2023-04-03T13:05:47;100314.16;;;12.78;38.96
58757;BME280;44527;47.460;19.016;2023-04-03T13:08:50;100312.25;;;12.45;38.12
58757;BME280;44527;47.460;19.016;2023-04-03T13:12:14;100301.87;;;13.01;37.73
58757;BME280;44527;47.460;19.016;2023-04-03T13:15:17;100302.81;;;12.89;37.96
58757;BME280;44527;47.460;19.016;2023-04-03T13:18:23;100297.63;;;12.65;38.79
58757;BME280;44527;47.460;19.016;2023-04-03T13:21:28;100290.28;;;12.57;38.88
58757;BME280;44527;47.460;19.016;2023-04-03T13:24:32;100290.66;;;12.64;37.81
58757;BME280;44527;47.460;19.016;2023-04-03T13:27:38;100279.75;;;12.46;38.28
58757;BME280;44527;47.460;19.016;2023-04-03T13:30:41;100287.87;;;12.54;39.82
58757;BME280;44527;47.460;19.016;2023-04-03T13:37:31;100290.41;;;12.56;39.75
58757;BME280;44527;47.460;19.016;2023-04-03T13:40:33;100285.38;;;12.64;39.27
58757;BME280;44527;47.460;19.016;2023-04-03T13:43:51;100283.63;;;12.76;38.92
58757;BME280;44527;47.460;19.016;2023-04-03T13:53:14;100278.88;;;12.46;37.99
58757;BME280;44527;47.460;19.016;2023-04-03T14:02:32;100270.53;;;12.16;39.10
58757;BME280;44527;47.460;19.016;2023-04-03T14:05:35;100274.87;;;12.29;40.66
58757;BME280;44527;47.460;19.016;2023-04-03T14:08:37;100263.94;;;12.46;38.19
58757;BME280;44527;47.460;19.016;2023-04-03T14:11:45;100261.25;;;12.35;38.37
58757;BME280;44527;47.460;19.016;2023-04-03T14:14:48;100270.38;;;12.42;39.11
58757;BME280;44527;47.460;19.016;2023-04-03T14:17:50;100263.38;;;12.18;38.01
58757;BME280;44527;47.460;19.016;2023-04-03T14:20:53;100249.84;;;11.88;40.66
58757;BME280;44527;47.460;19.016;2023-04-03T14:23:56;100255.19;;;11.86;40.99
58757;BME280;44527;47.460;19.016;2023-04-03T14:26:58;100255.09;;;11.75;39.68
58757;BME280;44527;47.460;19.016;2023-04-03T14:30:05;100259.47;;;12.00;39.66
58757;BME280;44527;47.460;19.016;2023-04-03T14:33:09;100255.09;;;11.88;39.12
58757;BME280;44527;47.460;19.016;2023-04-03T14:36:16;100250.47;;;11.79;38.70
58757;BME280;44527;47.460;19.016;2023-04-03T14:39:19;100246.56;;;12.08;41.29
58757;BME280;44527;47.460;19.016;2023-04-03T14:42:29;100257.91;;;12.09;39.70
58757;BME280;44527;47.460;19.016;2023-04-03T14:45:32;100261.81;;;12.27;38.72
58757;BME280;44527;47.460;19.016;2023-04-03T14:48:34;100262.12;;;12.11;39.69
58757;BME280;44527;47.460;19.016;2023-04-03T14:51:37;100265.31;;;12.28;39.92
58757;BME280;44527;47.460;19.016;2023-04-03T14:54:40;100267.94;;;12.28;39.09
58757;BME280;44527;47.460;19.016;2023-04-03T14:57:42;100266.91;;;12.06;38.59
58757;BME280;44527;47.460;19.016;2023-04-03T15:00:44;100269.78;;;12.14;40.52
58757;BME280;44527;47.460;19.016;2023-04-03T15:03:47;100261.88;;;12.03;40.01
58757;BME280;44527;47.460;19.016;2023-04-03T15:06:49;100258.00;;;11.96;39.21
58757;BME280;44527;47.460;19.016;2023-04-03T15:09:53;100266.25;;;11.79;40.56
58757;BME280;44527;47.460;19.016;2023-04-03T15:12:58;100261.19;;;11.52;40.21
58757;BME280;44527;47.460;19.016;2023-04-03T15:28:06;100269.12;;;11.13;40.60
58757;BME280;44527;47.460;19.016;2023-04-03T15:31:10;100268.31;;;10.74;40.54
58757;BME280;44527;47.460;19.016;2023-04-03T15:34:12;100259.12;;;10.54;40.24
58757;BME280;44527;47.460;19.016;2023-04-03T15:37:15;100264.91;;;10.47;40.59
58757;BME280;44527;47.460;19.016;2023-04-03T15:40:17;100260.03;;;10.41;41.48
58757;BME280;44527;47.460;19.016;2023-04-03T15:43:19;100255.19;;;10.34;40.72
58757;BME280;44527;47.460;19.016;2023-04-03T15:46:21;100265.75;;;10.20;40.84
58757;BME280;44527;47.460;19.016;2023-04-03T15:49:24;100260.69;;;10.04;41.87
58757;BME280;44527;47.460;19.016;2023-04-03T15:52:26;100261.91;;;9.99;42.04
58757;BME280;44527;47.460;19.016;2023-04-03T15:55:29;100257.31;;;10.02;41.49
58757;BME280;44527;47.460;19.016;2023-04-03T15:58:32;100261.00;;;9.85;41.56
58757;BME280;44527;47.460;19.016;2023-04-03T16:01:34;100267.22;;;9.70;41.40
58757;BME280;44527;47.460;19.016;2023-04-03T16:04:38;100265.56;;;9.55;41.87
58757;BME280;44527;47.460;19.016;2023-04-03T16:07:40;100268.94;;;9.57;41.95
58757;BME280;44527;47.460;19.016;2023-04-03T16:10:44;100262.69;;;9.59;42.31
58757;BME280;44527;47.460;19.016;2023-04-03T16:13:47;100260.44;;;9.53;40.80
58757;BME280;44527;47.460;19.016;2023-04-03T16:16:50;100260.00;;;9.18;41.71
58757;BME280;44527;47.460;19.016;2023-04-03T16:19:52;100265.25;;;9.18;41.74
58757;BME280;44527;47.460;19.016;2023-04-03T16:22:56;100268.34;;;9.10;41.93
58757;BME280;44527;47.460;19.016;2023-04-03T16:25:58;100259.72;;;9.08;41.66
58757;BME280;44527;47.460;19.016;2023-04-03T16:29:01;100272.62;;;8.83;42.07
58757;BME280;44527;47.460;19.016;2023-04-03T16:32:03;100271.78;;;8.82;42.26
58757;BME280;44527;47.460;19.016;2023-04-03T16:35:06;100285.06;;;8.79;43.37
58757;BME280;44527;47.460;19.016;2023-04-03T16:38:08;100293.75;;;8.80;42.62
58757;BME280;44527;47.460;19.016;2023-04-03T16:41:10;100295.25;;;8.84;42.35
58757;BME280;44527;47.460;19.016;2023-04-03T16:44:12;100293.22;;;8.89;42.64
58757;BME280;44527;47.460;19.016;2023-04-03T16:47:15;100293.56;;;8.83;43.54
58757;BME280;44527;47.460;19.016;2023-04-03T16:50:21;100301.91;;;8.89;42.44
58757;BME280;44527;47.460;19.016;2023-04-03T16:53:24;100293.09;;;8.90;42.92
58757;BME280;44527;47.460;19.016;2023-04-03T16:56:26;100293.97;;;8.91;42.33
58757;BME280;44527;47.460;19.016;2023-04-03T16:59:29;100307.97;;;8.90;44.49
58757;BME280;44527;47.460;19.016;2023-04-03T17:02:31;100313.19;;;8.90;44.23
58757;BME280;44527;47.460;19.016;2023-04-03T17:05:34;100324.75;;;8.57;44.19
58757;BME280;44527;47.460;19.016;2023-04-03T17:08:36;100331.41;;;8.47;45.13
58757;BME280;44527;47.460;19.016;2023-04-03T17:11:38;100350.22;;;8.38;44.47
58757;BME280;44527;47.460;19.016;2023-04-03T17:14:40;100357.56;;;8.31;44.64
58757;BME280;44527;47.460;19.016;2023-04-03T17:17:43;100371.91;;;8.24;44.48
58757;BME280;44527;47.460;19.016;2023-04-03T17:20:45;100379.50;;;8.13;43.71
58757;BME280;44527;47.460;19.016;2023-04-03T17:23:49;100381.94;;;8.16;44.99
58757;BME280;44527;47.460;19.016;2023-04-03T17:26:53;100387.84;;;8.03;43.87
58757;BME280;44527;47.460;19.016;2023-04-03T17:29:55;100402.38;;;7.93;44.96
58757;BME280;44527;47.460;19.016;2023-04-03T17:32:57;100410.69;;;7.84;45.24
58757;BME280;44527;47.460;19.016;2023-04-03T17:36:00;100415.38;;;7.77;43.93
58757;BME280;44527;47.460;19.016;2023-04-03T17:39:03;100424.03;;;7.62;44.07
58757;BME280;44527;47.460;19.016;2023-04-03T17:42:05;100432.81;;;7.61;45.57
58757;BME280;44527;47.460;19.016;2023-04-03T17:45:07;100436.97;;;7.48;45.27
58757;BME280;44527;47.460;19.016;2023-04-03T17:48:10;100448.66;;;7.41;44.27